HOURLY OBS INDEX

055

Northwest Slopes - south

GUNNEDAH AIRPORT AWS

Site: 055202
Alt: 262.6m
3km N of GUNNEDAH


  Time     Wind        Temp  DP   Baro     Rain since   Rain past  Vis(m), Cloud(base in m), Weather
  local        km/h                         9am  last   hr   10m    
Thu 09:00  ESE 15/ 19   9.7  5.7  1027.6    0.0   0.0   0.0   0.0   ----- 
Thu 09:30   SE 17/ 20  10.9  5.2  1027.8    0.0   0.0   0.0   0.0   ----- 
Thu 10:00  ESE 13/ 17  12.9  6.3  1027.8    0.0   0.0   0.0   0.0   ----- 
Thu 10:30  ESE 15/ 22  14.6  6.4  1027.7    0.0   0.0   0.0   0.0   ----- 
Thu 11:00  ESE 13/ 20  15.5  6.0  1027.4    0.0   0.0   0.0   0.0   ----- 
Thu 11:30   SE 11/ 20  16.1  6.0  1027.0    0.0   0.0   0.0   0.0   ----- 
Thu 12:00    E 11/ 19  17.2  5.2  1026.5    0.0   0.0   0.0   0.0   ----- 
Thu 12:30    E 13/ 19  17.5  4.5  1025.8    0.0   0.0   0.0   0.0   ----- 
Thu 13:00  ENE 11/ 15  18.2  3.7  1025.4    0.0   0.0   0.0   0.0   ----- 
Thu 13:30  NNE  7/ 11  18.4  2.3  1025.0    0.0   0.0   0.0   0.0   ----- 
Thu 14:00  NNE  6/  9  18.7  1.2  1024.7    0.0   0.0   0.0   0.0   ----- 

TAMWORTH AIRPORT AWS

Site: 055325
Alt: 394.9m
9km WNW of TAMWORTH


  Time     Wind        Temp  DP   Baro     Rain since   Rain past  Vis(m), Cloud(base in m), Weather
  local        km/h                         9am  last   hr   10m    
Thu 09:00    S  4/  7   8.8  5.2  1027.9    0.0   0.0   0.0   0.0   10000 
Thu 09:30   SE  9/ 13  11.0  4.7  1027.9    0.0   0.0   0.0   0.0   10000 
Thu 10:00    E  4/ 11  13.2  5.1  1027.8    0.0   0.0   0.0   0.0   10000 
Thu 10:30   SE  7/ 13  14.6  5.4  1027.6    0.0   0.0   0.0   0.0   10000 
Thu 11:00    S 11/ 19  15.0  4.7  1027.4    0.0   0.0   0.0   0.0   10000 
Thu 11:30  ESE 13/ 19  15.6  4.3  1027.0    0.0   0.0   0.0   0.0   10000 
Thu 12:00  ESE  7/ 17  16.6  4.6  1026.5    0.0   0.0   0.0   0.0   10000 
Thu 12:30   NE  7/ 13  17.6  4.2  1026.0    0.0   0.0   0.0   0.0   10000 
Thu 13:00  NNE  4/ 11  18.4  4.6  1025.6    0.0   0.0   0.0   0.0   10000 
Thu 13:30    W  7/  9  18.5  3.6  1025.1    0.0   0.0   0.0   0.0   10000 
Thu 14:00  WNW 11/ 19  18.3  3.4  1024.9    0.0   0.0   0.0   0.0   10000